createdAt,value
2018-11-02T22:07:25.296Z,1004.75
2018-11-02T22:08:25.128Z,1004.67
2018-11-02T22:10:19.294Z,1004.71
2018-11-02T22:11:19.014Z,1004.70
2018-11-02T22:13:15.944Z,1004.75
2018-11-02T22:14:15.963Z,1004.73
2018-11-02T22:15:15.711Z,1004.76
2018-11-02T22:16:15.833Z,1004.77
2018-11-02T22:17:15.523Z,1004.75
2018-11-02T22:18:15.513Z,1004.75
2018-11-02T22:19:15.568Z,1004.74
2018-11-02T22:20:15.532Z,1004.76
2018-11-02T22:21:15.502Z,1004.79
2018-11-02T22:22:15.508Z,1004.75
2018-11-02T22:23:17.194Z,1004.77
2018-11-02T22:24:15.485Z,1004.78
2018-11-02T22:25:15.694Z,1004.81
2018-11-02T22:27:59.804Z,1004.87
2018-11-02T22:28:59.886Z,1004.90
2018-11-02T22:29:59.883Z,1004.90
2018-11-02T22:30:59.833Z,1004.92
2018-11-02T22:31:59.945Z,1004.90
2018-11-02T22:32:59.735Z,1004.89
2018-11-02T22:33:59.738Z,1004.90
2018-11-02T22:34:59.711Z,1004.86
2018-11-02T22:35:59.727Z,1004.89
2018-11-02T22:36:59.690Z,1004.85
2018-11-02T22:37:59.927Z,1004.88
2018-11-02T22:38:59.700Z,1004.89
2018-11-02T22:39:59.696Z,1004.92
2018-11-02T22:40:59.671Z,1004.97
2018-11-02T22:41:59.648Z,1004.95
2018-11-02T22:42:59.728Z,1004.93
2018-11-02T22:43:59.653Z,1004.92
2018-11-02T22:44:59.613Z,1004.93
2018-11-02T22:45:59.612Z,1004.86
2018-11-02T22:46:59.613Z,1004.89
2018-11-02T22:47:59.589Z,1004.89
2018-11-02T22:48:59.603Z,1004.83
2018-11-02T22:49:59.590Z,1004.84
2018-11-02T22:50:59.562Z,1004.83
2018-11-02T22:51:59.550Z,1004.85
2018-11-02T22:52:59.565Z,1004.84
2018-11-02T22:53:59.626Z,1004.79
2018-11-02T22:54:59.531Z,1004.85
2018-11-02T22:55:59.513Z,1004.89
2018-11-02T22:56:59.514Z,1004.84
2018-11-02T22:57:59.492Z,1004.80
2018-11-02T22:58:59.487Z,1004.83
2018-11-02T22:59:59.474Z,1004.82
2018-11-02T23:00:59.488Z,1004.80
2018-11-02T23:01:59.515Z,1004.81
2018-11-02T23:02:59.522Z,1004.83
2018-11-02T23:03:59.522Z,1004.81
2018-11-02T23:04:59.645Z,1004.81
2018-11-02T23:06:01.463Z,1004.79
2018-11-02T23:06:59.468Z,1004.82
2018-11-02T23:07:59.452Z,1004.83
2018-11-02T23:08:59.513Z,1004.83
2018-11-02T23:09:59.451Z,1004.86
2018-11-02T23:10:59.444Z,1004.86
2018-11-02T23:11:59.438Z,1004.92
2018-11-02T23:12:59.384Z,1004.94
2018-11-02T23:13:59.419Z,1004.98
2018-11-02T23:14:59.374Z,1005.04
2018-11-02T23:15:59.463Z,1005.01
2018-11-02T23:17:00.964Z,1005.01
2018-11-02T23:17:59.362Z,1004.99
2018-11-02T23:18:59.329Z,1004.95
2018-11-02T23:19:59.329Z,1004.99
2018-11-02T23:20:59.340Z,1004.96
2018-11-02T23:21:59.336Z,1004.92
2018-11-02T23:22:59.306Z,1004.86
2018-11-02T23:23:59.330Z,1004.87
2018-11-02T23:24:59.263Z,1004.91
2018-11-02T23:25:59.265Z,1004.82
2018-11-02T23:26:59.273Z,1004.80
2018-11-02T23:27:59.268Z,1004.79
2018-11-02T23:29:02.639Z,1004.79
2018-11-02T23:30:03.263Z,1004.76
2018-11-02T23:31:00.243Z,1004.76
2018-11-02T23:32:19.859Z,1004.72
2018-11-02T23:33:00.779Z,1004.69
2018-11-02T23:34:04.843Z,1004.73
2018-11-02T23:34:59.702Z,1004.69
2018-11-02T23:36:05.080Z,1004.80
2018-11-02T23:36:59.490Z,1004.78
2018-11-02T23:38:00.022Z,1004.79
2018-11-02T23:39:01.259Z,1004.85
2018-11-02T23:39:59.797Z,1004.88
2018-11-02T23:41:59.867Z,1004.94
2018-11-02T23:43:02.417Z,1004.96
2018-11-02T23:45:00.081Z,1004.94
2018-11-02T23:45:59.667Z,1004.91
2018-11-02T23:47:02.011Z,1004.91
2018-11-02T23:48:00.078Z,1004.86
2018-11-02T23:48:59.183Z,1004.75
2018-11-02T23:50:59.365Z,1004.71
2018-11-02T23:52:01.230Z,1004.69
2018-11-02T23:53:59.234Z,1004.69
2018-11-02T23:55:05.750Z,1004.69
2018-11-02T23:56:00.544Z,1004.65
2018-11-02T23:57:01.300Z,1004.68
2018-11-02T23:58:01.260Z,1004.62
2018-11-02T23:59:00.777Z,1004.61
